Time;durP1;ratioP1;P1;durP2;ratioP2;P2;SDS_P1;SDS_P2;PMS_P1;PMS_P2;Temp;Humidity;BMP_temperature;BMP_pressure;BME280_temperature;BME280_humidity;BME280_pressure;Samples;Min_cycle;Max_cycle;Signal;HPM_P1;HPM_P2
2022/12/12 00:01:22;;;;;;;18.27;8.32;;;-0.10;99.90;;;;;;4747416;30;20105;-77
2022/12/12 00:03:50;;;;;;;21.27;7.93;;;-0.20;99.90;;;;;;4738627;30;20445;-77
2022/12/12 00:06:18;;;;;;;16.35;7.25;;;-0.10;99.90;;;;;;4740291;30;20549;-77
2022/12/12 00:08:49;;;;;;;15.07;6.15;;;0.60;99.90;;;;;;4725587;30;20044;-77
2022/12/12 00:11:17;;;;;;;16.45;6.57;;;-0.20;99.90;;;;;;4743099;30;20047;-76
2022/12/12 00:13:45;;;;;;;15.90;6.72;;;-0.20;99.90;;;;;;4742328;30;20087;-77
2022/12/12 00:16:13;;;;;;;15.18;7.00;;;0.00;99.90;;;;;;4743300;30;20049;-77
2022/12/12 00:18:41;;;;;;;18.45;7.57;;;-0.90;99.90;;;;;;4739495;30;20429;-76
2022/12/12 00:21:16;;;;;;;16.58;5.97;;;0.40;99.90;;;;;;4741792;30;20057;-77
2022/12/12 00:23:43;;;;;;;14.77;6.03;;;-0.10;99.90;;;;;;4744547;30;20107;-77
2022/12/12 00:26:20;;;;;;;16.17;5.90;;;-0.40;99.90;;;;;;4751803;30;20056;-76
2022/12/12 00:28:47;;;;;;;12.15;4.90;;;0.20;99.90;;;;;;4725536;30;20059;-77
2022/12/12 00:31:15;;;;;;;15.23;6.90;;;0.00;99.90;;;;;;4734044;30;20088;-77
2022/12/12 00:33:47;;;;;;;19.80;8.43;;;-0.50;99.90;;;;;;4730317;30;20052;-76
2022/12/12 00:36:20;;;;;;;15.13;6.50;;;0.00;99.90;;;;;;4743581;30;20109;-77
2022/12/12 00:39:00;;;;;;;14.07;5.38;;;1.10;99.90;;;;;;4740308;30;20060;-76
2022/12/12 00:41:28;;;;;;;13.68;5.38;;;-0.10;99.90;;;;;;4724759;30;20539;-76
2022/12/12 00:43:55;;;;;;;15.18;6.47;;;0.00;99.90;;;;;;4748878;30;20199;-76
2022/12/12 00:46:24;;;;;;;18.30;6.28;;;0.00;99.90;;;;;;4730863;30;20044;-77
2022/12/12 00:48:57;;;;;;;14.00;5.38;;;0.10;99.90;;;;;;4744329;30;20702;-77
2022/12/12 00:51:27;;;;;;;13.27;5.38;;;-0.30;99.90;;;;;;4743112;30;20135;-76
2022/12/12 00:53:54;;;;;;;14.75;6.00;;;0.00;99.90;;;;;;4737591;30;20056;-77
2022/12/12 00:56:23;;;;;;;13.45;5.32;;;-1.30;99.90;;;;;;4748582;30;20041;-77
2022/12/12 00:58:51;;;;;;;11.13;4.78;;;0.00;99.90;;;;;;4736450;30;20044;-76
2022/12/12 01:01:25;;;;;;;15.48;5.88;;;0.00;99.90;;;;;;4742742;30;20059;-77
2022/12/12 01:03:53;;;;;;;13.52;5.95;;;-0.20;99.90;;;;;;4728181;30;20056;-77
2022/12/12 01:06:22;;;;;;;14.77;6.65;;;-0.20;99.90;;;;;;4744628;30;20118;-77
2022/12/12 01:08:50;;;;;;;13.57;5.68;;;-0.40;99.90;;;;;;4743707;30;20044;-76
2022/12/12 01:11:18;;;;;;;11.80;4.18;;;-0.30;99.90;;;;;;4738287;30;20604;-76
2022/12/12 01:13:50;;;;;;;15.52;6.28;;;-0.20;99.90;;;;;;4742650;30;20536;-77
2022/12/12 01:16:18;;;;;;;15.00;6.60;;;-0.60;99.90;;;;;;4743489;30;20097;-76
2022/12/12 01:18:47;;;;;;;16.15;5.15;;;-0.50;99.90;;;;;;4739614;30;20064;-76
2022/12/12 01:21:21;;;;;;;13.30;5.65;;;-0.80;99.90;;;;;;4731506;30;20663;-76
2022/12/12 01:23:49;;;;;;;12.43;5.05;;;-0.50;99.90;;;;;;4740310;30;20048;-76
2022/12/12 01:26:20;;;;;;;12.60;5.13;;;-0.30;99.90;;;;;;4741049;30;20059;-75
2022/12/12 01:28:51;;;;;;;17.55;7.57;;;-0.40;99.90;;;;;;4738029;30;20156;-76
2022/12/12 01:31:19;;;;;;;16.42;6.10;;;-0.90;99.90;;;;;;4745703;30;20146;-76
2022/12/12 01:33:46;;;;;;;15.48;5.55;;;-0.50;99.90;;;;;;4728127;30;20053;-75
2022/12/12 01:36:19;;;;;;;11.60;5.75;;;-0.50;99.90;;;;;;4746094;30;20087;-76
2022/12/12 01:38:48;;;;;;;14.38;5.95;;;-0.80;99.90;;;;;;4728681;30;20064;-76
2022/12/12 01:41:16;;;;;;;18.23;9.00;;;-0.50;99.90;;;;;;4744313;30;20052;-76
2022/12/12 01:43:45;;;;;;;13.50;6.50;;;-0.50;99.90;;;;;;4742475;30;20048;-77
2022/12/12 01:46:24;;;;;;;17.10;7.78;;;-0.50;99.90;;;;;;4730437;30;21090;-76
2022/12/12 01:48:56;;;;;;;18.45;7.88;;;-0.60;99.90;;;;;;4753885;30;20036;-76
2022/12/12 01:51:26;;;;;;;11.20;4.00;;;-0.50;99.90;;;;;;4746154;30;20048;-77
2022/12/12 01:54:02;;;;;;;18.85;7.63;;;-0.60;99.90;;;;;;4738490;30;20551;-76
2022/12/12 01:56:31;;;;;;;17.73;8.07;;;-0.70;99.90;;;;;;4758128;30;20558;-76
2022/12/12 01:59:00;;;;;;;16.90;7.25;;;-0.80;99.90;;;;;;4735838;30;20052;-76
2022/12/12 02:01:27;;;;;;;20.20;7.68;;;-0.50;99.90;;;;;;4754456;30;20567;-75
2022/12/12 02:03:55;;;;;;;16.35;7.53;;;-0.50;99.90;;;;;;4734050;30;20560;-76
2022/12/12 02:06:26;;;;;;;17.35;8.02;;;-0.60;99.90;;;;;;4731575;30;20968;-76
2022/12/12 02:08:59;;;;;;;17.65;6.88;;;-0.90;99.90;;;;;;4728639;30;20460;-76
2022/12/12 02:11:40;;;;;;;18.17;7.40;;;-0.30;99.90;;;;;;4741470;30;20052;-76
2022/12/12 02:14:07;;;;;;;17.67;6.57;;;-0.50;99.90;;;;;;4749687;30;20536;-76
2022/12/12 02:17:00;;;;;;;17.98;8.15;;;-0.60;99.90;;;;;;4724802;30;20052;-76
2022/12/12 02:19:48;;;;;;;13.40;5.53;;;-0.90;99.90;;;;;;4741709;30;20107;-76
2022/12/12 02:22:53;;;;;;;14.45;6.05;;;-0.70;99.90;;;;;;4750066;30;20411;-76
2022/12/12 02:25:45;;;;;;;14.10;5.97;;;-0.60;99.90;;;;;;4730277;30;20052;-76
2022/12/12 02:28:47;;;;;;;17.27;7.00;;;-0.40;99.90;;;;;;4747443;30;20056;-76
2022/12/12 02:31:54;;;;;;;13.85;6.28;;;-0.60;99.90;;;;;;4728815;30;20056;-76
2022/12/12 02:34:44;;;;;;;13.93;5.15;;;-0.50;99.90;;;;;;4693564;30;20560;-76
2022/12/12 02:37:38;;;;;;;14.27;5.97;;;-0.70;99.90;;;;;;4738782;30;20140;-76
2022/12/12 02:40:14;;;;;;;15.20;5.82;;;-0.60;99.90;;;;;;4743720;30;20155;-76
2022/12/12 02:43:02;;;;;;;12.02;5.55;;;-0.50;99.90;;;;;;4746898;30;20124;-76
2022/12/12 02:45:41;;;;;;;14.10;5.65;;;-0.60;99.90;;;;;;4743436;30;20078;-76
2022/12/12 02:48:19;;;;;;;13.65;4.90;;;-0.70;99.90;;;;;;4731939;30;20151;-76
2022/12/12 02:50:49;;;;;;;13.75;4.65;;;-0.70;99.90;;;;;;4743387;30;20107;-75
2022/12/12 02:53:19;;;;;;;13.15;5.55;;;-0.70;99.90;;;;;;4741058;30;20056;-75
2022/12/12 02:55:48;;;;;;;12.90;5.05;;;-0.50;99.90;;;;;;4745448;30;20072;-75
2022/12/12 02:58:18;;;;;;;13.85;5.60;;;-0.60;99.90;;;;;;4752243;30;20505;-75
2022/12/12 03:01:22;;;;;;;12.52;4.78;;;-0.50;99.90;;;;;;4738533;30;20055;-75
2022/12/12 03:10:05;;;;;;;14.32;5.53;;;-0.60;99.90;;;;;;4742401;30;20442;-76
2022/12/12 03:12:49;;;;;;;15.85;6.22;;;-0.70;99.90;;;;;;4723288;30;20064;-76
2022/12/12 03:15:30;;;;;;;15.65;6.95;;;-0.50;99.90;;;;;;4729156;30;20060;-76
2022/12/12 03:18:26;;;;;;;12.40;5.97;;;-0.50;99.90;;;;;;4743952;30;20048;-76
2022/12/12 03:21:04;;;;;;;17.70;8.43;;;-0.50;99.90;;;;;;4759045;30;20179;-76
2022/12/12 03:23:43;;;;;;;13.95;4.97;;;-0.50;99.90;;;;;;4741539;30;20055;-76
2022/12/12 03:26:20;;;;;;;16.92;6.88;;;-0.50;99.90;;;;;;4731963;30;20553;-76
2022/12/12 03:28:54;;;;;;;14.00;6.05;;;-0.50;99.90;;;;;;4748032;30;20075;-75
2022/12/12 03:31:27;;;;;;;17.77;7.38;;;-0.50;99.90;;;;;;4743867;30;20151;-77
2022/12/12 03:34:20;;;;;;;16.48;7.43;;;-0.50;99.90;;;;;;4745453;30;20052;-76
2022/12/12 03:37:04;;;;;;;14.18;5.18;;;-0.50;99.90;;;;;;4732746;30;20060;-76
2022/12/12 03:39:37;;;;;;;15.02;5.75;;;-0.50;99.90;;;;;;4743111;30;20056;-76
2022/12/12 03:42:29;;;;;;;18.25;7.38;;;-0.40;99.90;;;;;;4729952;30;20052;-76
2022/12/12 03:45:11;;;;;;;15.93;6.07;;;-0.40;99.90;;;;;;4745399;30;20052;-76
2022/12/12 03:47:51;;;;;;;13.35;6.22;;;-0.40;99.90;;;;;;4737651;30;20142;-76
2022/12/12 03:50:21;;;;;;;39.92;20.63;;;-0.50;99.90;;;;;;4726805;30;20123;-76
2022/12/12 03:53:08;;;;;;;17.45;8.15;;;-0.40;99.90;;;;;;4732875;30;20052;-76
2022/12/12 03:55:43;;;;;;;21.77;9.70;;;-0.40;99.90;;;;;;4748718;30;20052;-76
2022/12/12 03:58:13;;;;;;;20.35;7.70;;;-0.50;99.90;;;;;;4745095;30;20045;-76
2022/12/12 04:00:43;;;;;;;19.30;7.38;;;-0.70;99.90;;;;;;4748435;30;20052;-75
2022/12/12 04:03:25;;;;;;;17.63;6.78;;;-0.40;99.90;;;;;;4743000;30;20052;-76
2022/12/12 04:14:47;;;;;;;;;;;-0.50;99.90;;;;;;4712948;30;20057;-76
2022/12/12 04:17:21;;;;;;;14.73;6.05;;;-0.60;99.90;;;;;;4746855;30;20382;-76
2022/12/12 04:23:22;;;;;;;24.45;9.30;;;-0.60;99.90;;;;;;4738689;30;20055;-76
2022/12/12 04:29:14;;;;;;;16.85;6.78;;;-0.50;98.70;;;;;;4748439;30;20056;-76
2022/12/12 04:32:11;;;;;;;15.52;6.85;;;-0.80;99.00;;;;;;4739250;30;20069;-76
2022/12/12 04:34:52;;;;;;;22.75;9.45;;;0.20;98.80;;;;;;4732376;30;20731;-77
2022/12/12 04:37:42;;;;;;;30.35;11.52;;;-1.10;98.00;;;;;;4752996;30;20139;-76
2022/12/12 04:40:14;;;;;;;29.23;9.43;;;-1.40;98.60;;;;;;4738306;30;20791;-76
2022/12/12 04:42:49;;;;;;;26.60;9.40;;;-0.80;98.50;;;;;;4727436;30;20044;-75
2022/12/12 04:45:20;;;;;;;21.02;7.70;;;-1.70;98.60;;;;;;4741994;30;20764;-76
2022/12/12 04:47:52;;;;;;;31.15;9.48;;;-0.80;99.00;;;;;;4748399;30;20059;-76
2022/12/12 04:50:26;;;;;;;24.40;7.67;;;-0.80;99.10;;;;;;4732486;30;20124;-75
2022/12/12 04:52:55;;;;;;;27.58;8.90;;;-0.80;99.50;;;;;;4754230;30;20056;-76
2022/12/12 04:55:38;;;;;;;39.58;11.80;;;-1.90;99.50;;;;;;4731030;30;20053;-76
2022/12/12 04:58:06;;;;;;;;;;;-0.80;99.60;;;;;;4743121;30;20456;-76
2022/12/12 05:00:46;;;;;;;38.45;11.55;;;-0.90;99.90;;;;;;4738135;30;19933;-76
2022/12/12 05:04:00;;;;;;;45.83;13.15;;;-0.90;99.60;;;;;;4750180;30;20053;-76
2022/12/12 05:06:45;;;;;;;56.00;15.15;;;-0.80;99.90;;;;;;4714813;30;20223;-76
2022/12/12 05:09:15;;;;;;;28.38;9.45;;;-1.10;99.60;;;;;;4739119;30;20111;-76
2022/12/12 05:11:43;;;;;;;24.27;8.55;;;-1.30;99.30;;;;;;4746971;30;20040;-76
2022/12/12 05:14:14;;;;;;;19.80;8.20;;;-1.00;99.90;;;;;;4744563;30;20240;-76
2022/12/12 05:16:52;;;;;;;19.95;7.35;;;-1.00;99.30;;;;;;4741711;30;20044;-76
2022/12/12 05:19:20;;;;;;;16.27;5.93;;;-1.10;99.10;;;;;;4732404;30;20060;-76
2022/12/12 05:21:48;;;;;;;17.33;6.10;;;-1.60;98.00;;;;;;4748825;30;20098;-76
2022/12/12 05:24:15;;;;;;;18.00;7.72;;;-1.40;97.80;;;;;;4734826;30;20057;-76
2022/12/12 05:26:42;;;;;;;15.20;5.72;;;-1.10;97.50;;;;;;4757927;30;20139;-76
2022/12/12 05:29:10;;;;;;;14.48;5.78;;;-1.10;96.90;;;;;;4745251;30;20558;-76
2022/12/12 05:31:37;;;;;;;14.38;5.32;;;-1.30;96.40;;;;;;4739356;30;20083;-76
2022/12/12 05:34:04;;;;;;;16.50;6.38;;;-1.20;96.40;;;;;;4749749;30;20056;-76
2022/12/12 05:36:35;;;;;;;16.33;7.25;;;-1.20;95.80;;;;;;4742319;30;20140;-76
2022/12/12 05:39:02;;;;;;;13.02;5.30;;;-1.20;95.60;;;;;;4749223;30;20061;-76
2022/12/12 05:41:30;;;;;;;10.80;4.75;;;-1.30;95.50;;;;;;4734425;30;20075;-76
2022/12/12 05:43:57;;;;;;;14.75;6.10;;;-1.10;95.50;;;;;;4746302;30;20524;-76
2022/12/12 05:46:28;;;;;;;15.52;5.68;;;-1.30;95.70;;;;;;4754315;30;20052;-76
2022/12/12 05:48:55;;;;;;;16.27;6.25;;;-1.30;95.30;;;;;;4763003;30;20049;-75
2022/12/12 05:51:24;;;;;;;14.70;6.38;;;-1.30;94.80;;;;;;4729554;30;20497;-77
2022/12/12 05:53:51;;;;;;;13.05;5.38;;;-1.40;95.00;;;;;;4746058;30;20467;-76
2022/12/12 05:56:18;;;;;;;17.30;6.10;;;-1.50;94.90;;;;;;4740945;30;20057;-76
2022/12/12 05:58:46;;;;;;;15.43;5.93;;;-1.60;94.90;;;;;;4756325;30;20052;-76
2022/12/12 06:01:13;;;;;;;18.20;5.78;;;-2.00;94.90;;;;;;4747829;30;20071;-76
2022/12/12 06:03:41;;;;;;;24.48;8.70;;;-1.30;95.60;;;;;;4731665;30;20518;-76
2022/12/12 06:06:09;;;;;;;17.98;7.93;;;-1.50;95.70;;;;;;4744614;30;20084;-77
2022/12/12 06:08:36;;;;;;;20.33;7.80;;;-1.60;95.50;;;;;;4748003;30;20041;-76
2022/12/12 06:11:07;;;;;;;18.02;8.45;;;-1.40;95.60;;;;;;4734819;30;20142;-75
2022/12/12 06:13:35;;;;;;;16.75;7.38;;;-1.50;95.30;;;;;;4757046;30;20059;-77
2022/12/12 06:16:11;;;;;;;17.48;6.57;;;-1.00;95.40;;;;;;4737977;30;20060;-75
2022/12/12 06:18:39;;;;;;;13.52;5.82;;;-1.60;95.40;;;;;;4746748;30;20060;-75
2022/12/12 06:21:09;;;;;;;15.45;5.72;;;-1.60;95.70;;;;;;4739279;30;20074;-75
2022/12/12 06:23:42;;;;;;;15.93;6.53;;;-1.30;95.90;;;;;;4744607;30;20064;-75
2022/12/12 06:26:12;;;;;;;19.17;7.72;;;-1.90;95.70;;;;;;4745335;30;20677;-75
2022/12/12 06:28:39;;;;;;;20.27;7.25;;;-0.40;96.10;;;;;;4745735;30;20048;-76
2022/12/12 06:31:10;;;;;;;14.93;5.63;;;-1.50;95.70;;;;;;4744619;30;20473;-75
2022/12/12 06:33:42;;;;;;;23.88;8.10;;;-1.40;95.70;;;;;;4743980;30;20139;-75
2022/12/12 06:36:17;;;;;;;15.23;7.03;;;-1.50;95.80;;;;;;4748582;30;20151;-76
2022/12/12 06:38:45;;;;;;;20.05;7.07;;;-1.50;95.70;;;;;;4745214;30;20058;-75
2022/12/12 06:41:13;;;;;;;25.38;8.10;;;-1.70;96.00;;;;;;4746957;30;20393;-75
2022/12/12 06:43:41;;;;;;;17.00;5.88;;;-1.90;96.10;;;;;;4744683;30;20040;-75
2022/12/12 06:46:29;;;;;;;22.75;7.70;;;-1.40;96.60;;;;;;4742794;30;20081;-75
2022/12/12 06:48:59;;;;;;;17.88;6.95;;;-1.50;96.50;;;;;;4744172;30;20048;-75
2022/12/12 06:51:32;;;;;;;18.45;6.72;;;-1.60;96.70;;;;;;4747438;30;20057;-75
2022/12/12 06:54:02;;;;;;;17.02;6.53;;;-1.00;97.20;;;;;;4731030;30;20113;-75
2022/12/12 06:56:30;;;;;;;25.77;8.93;;;-1.90;96.60;;;;;;4748038;30;20127;-75
2022/12/12 06:58:58;;;;;;;16.80;5.15;;;-1.40;96.90;;;;;;4739309;30;20129;-76
2022/12/12 07:01:26;;;;;;;22.15;7.22;;;-1.10;97.20;;;;;;4752415;30;20048;-77
2022/12/12 07:03:57;;;;;;;19.58;7.70;;;-1.40;97.20;;;;;;4732899;30;20080;-78
2022/12/12 07:06:25;;;;;;;25.35;9.02;;;-1.60;97.00;;;;;;4747545;30;20972;-77
2022/12/12 07:08:52;;;;;;;25.40;8.50;;;-1.70;97.30;;;;;;4744869;30;20060;-77
2022/12/12 07:11:24;;;;;;;24.92;11.98;;;-1.70;97.30;;;;;;4744783;30;20056;-78
2022/12/12 07:13:55;;;;;;;23.65;8.00;;;-1.50;97.30;;;;;;4751530;30;20059;-78
2022/12/12 07:16:23;;;;;;;34.42;12.43;;;-1.70;97.00;;;;;;4728768;30;20057;-77
2022/12/12 07:18:50;;;;;;;21.00;7.30;;;-1.40;97.60;;;;;;4734388;30;20052;-78
2022/12/12 07:21:19;;;;;;;22.55;7.75;;;-1.70;97.20;;;;;;4733863;30;20063;-77
2022/12/12 07:23:49;;;;;;;21.75;8.27;;;-1.40;97.00;;;;;;4728706;30;20668;-77
2022/12/12 07:26:25;;;;;;;22.02;8.73;;;-1.40;97.00;;;;;;4729379;30;20052;-77
2022/12/12 07:28:52;;;;;;;21.13;8.77;;;-1.40;96.80;;;;;;4727855;30;20106;-78
2022/12/12 07:31:25;;;;;;;18.60;7.25;;;-0.80;97.50;;;;;;4754049;30;20056;-77
2022/12/12 07:34:02;;;;;;;25.58;8.15;;;-1.40;97.60;;;;;;4747711;30;20064;-78
2022/12/12 07:36:29;;;;;;;27.00;9.30;;;-1.40;97.90;;;;;;4741402;30;20409;-78
2022/12/12 07:38:56;;;;;;;25.80;8.95;;;-1.50;97.20;;;;;;4740909;30;20131;-78
2022/12/12 07:41:24;;;;;;;25.13;8.18;;;-1.30;97.40;;;;;;4740743;30;20490;-78
2022/12/12 07:43:52;;;;;;;31.02;11.60;;;-1.50;97.60;;;;;;4738232;30;20057;-78
2022/12/12 07:46:23;;;;;;;27.17;11.60;;;-1.50;96.90;;;;;;4738105;30;20052;-79
2022/12/12 07:48:52;;;;;;;19.63;8.02;;;-1.50;97.00;;;;;;4733844;30;20087;-77
2022/12/12 07:51:20;;;;;;;22.40;8.70;;;-1.10;97.10;;;;;;4727237;30;20138;-79
2022/12/12 07:53:48;;;;;;;21.98;7.70;;;-0.90;97.00;;;;;;4747148;30;20060;-78
2022/12/12 07:56:19;;;;;;;22.65;8.23;;;-1.50;96.70;;;;;;4746188;30;20059;-78
2022/12/12 07:58:47;;;;;;;23.65;8.35;;;-0.90;97.10;;;;;;4733259;30;20052;-78
2022/12/12 08:01:23;;;;;;;29.02;9.07;;;-1.00;96.80;;;;;;4728458;30;20052;-78
2022/12/12 08:03:52;;;;;;;41.25;14.45;;;-1.00;96.60;;;;;;4734106;30;20135;-78
2022/12/12 08:06:23;;;;;;;18.40;7.32;;;-1.00;96.10;;;;;;4749656;30;20114;-78
2022/12/12 08:08:51;;;;;;;20.88;7.25;;;-0.70;95.70;;;;;;4726558;30;20045;-79
2022/12/12 08:11:22;;;;;;;30.52;13.02;;;-0.90;95.60;;;;;;4729360;30;20144;-79
2022/12/12 08:13:50;;;;;;;13.02;5.00;;;-0.80;95.30;;;;;;4730994;30;20071;-79
2022/12/12 08:16:20;;;;;;;35.17;12.82;;;-0.70;94.80;;;;;;4739094;30;20413;-79
2022/12/12 08:18:48;;;;;;;16.42;7.50;;;-0.60;95.20;;;;;;4742224;30;20117;-78
2022/12/12 08:21:18;;;;;;;16.15;6.43;;;-0.60;93.90;;;;;;4724197;30;20049;-79
2022/12/12 08:24:01;;;;;;;20.85;9.27;;;-0.70;93.80;;;;;;4753051;30;20064;-79
2022/12/12 08:26:29;;;;;;;20.98;7.80;;;-0.50;93.30;;;;;;4739662;30;20079;-79
2022/12/12 08:28:58;;;;;;;17.15;7.63;;;-1.50;92.60;;;;;;4741958;30;20054;-79
2022/12/12 08:31:26;;;;;;;17.58;9.57;;;-0.10;92.80;;;;;;4752516;30;20504;-78
2022/12/12 08:33:54;;;;;;;17.77;6.78;;;-0.40;91.80;;;;;;4734217;30;20106;-79
2022/12/12 08:36:25;;;;;;;17.70;7.05;;;-0.40;92.30;;;;;;4748915;30;20049;-79
2022/12/12 08:38:53;;;;;;;15.57;5.10;;;-0.30;92.20;;;;;;4745978;30;20575;-79
2022/12/12 08:41:21;;;;;;;17.60;7.43;;;-0.10;92.30;;;;;;4744290;30;20044;-78
2022/12/12 08:43:51;;;;;;;21.30;6.93;;;-0.30;91.90;;;;;;4757722;30;20055;-79
2022/12/12 08:46:23;;;;;;;14.65;6.10;;;-0.20;92.40;;;;;;4760699;30;20079;-79
2022/12/12 08:48:53;;;;;;;11.25;4.28;;;-0.30;91.30;;;;;;4747651;30;20063;-79
2022/12/12 08:51:21;;;;;;;14.00;5.88;;;-0.40;91.70;;;;;;4748974;30;20063;-79
2022/12/12 08:53:50;;;;;;;18.85;6.68;;;-0.30;92.10;;;;;;4745930;30;20060;-78
2022/12/12 08:56:19;;;;;;;13.90;5.28;;;-0.20;92.10;;;;;;4744341;30;20060;-78
2022/12/12 09:01:51;;;;;;;16.33;7.63;;;0.10;92.00;;;;;;5501875;24;20041;-79
2022/12/12 09:05:17;;;;;;;14.85;5.93;;;-0.20;91.20;;;;;;5186881;24;20026;31
2022/12/12 09:08:19;;;;;;;14.07;6.82;;;0.10;91.40;;;;;;5210383;24;20998;31
2022/12/12 09:14:11;;;;;;;11.57;5.95;;;0.20;90.30;;;;;;5524040;24;20048;-79
2022/12/12 09:23:43;;;;;;;13.30;5.85;;;0.30;90.30;;;;;;5212874;24;20135;-79
2022/12/12 09:26:31;;;;;;;9.05;4.07;;;-0.40;88.00;;;;;;4909029;24;20114;-79
2022/12/12 09:36:20;;;;;;;12.20;5.93;;;-0.30;88.60;;;;;;5015501;24;20052;-80
2022/12/12 09:38:55;;;;;;;14.02;5.82;;;0.30;88.70;;;;;;4731359;30;20064;-79
2022/12/12 09:48:36;;;;;;;15.32;6.60;;;0.50;88.90;;;;;;5394838;24;21130;31
2022/12/12 09:51:35;;;;;;;13.38;6.05;;;0.50;89.00;;;;;;4840588;24;20057;-79
2022/12/12 09:54:14;;;;;;;11.93;6.35;;;0.40;88.80;;;;;;4747578;30;20090;-79
2022/12/12 09:57:53;;;;;;;14.48;6.75;;;0.20;87.50;;;;;;4725110;30;20057;-79
2022/12/12 10:00:39;;;;;;;15.38;5.47;;;0.00;88.20;;;;;;4714355;30;20071;-79
2022/12/12 10:14:37;;;;;;;12.73;5.72;;;0.30;89.40;;;;;;4737093;30;20064;-81
2022/12/12 10:17:40;;;;;;;12.50;4.80;;;0.20;88.70;;;;;;4735812;30;20061;-80
2022/12/12 10:24:11;;;;;;;11.63;5.00;;;0.10;89.30;;;;;;4761010;30;20071;-81
2022/12/12 10:26:48;;;;;;;15.25;5.20;;;0.10;89.20;;;;;;4739667;30;20445;-80
2022/12/12 10:29:25;;;;;;;11.48;5.30;;;0.00;89.10;;;;;;4738687;30;20055;-81
2022/12/12 10:33:02;;;;;;;13.75;6.40;;;0.10;87.90;;;;;;4675858;30;20113;-80
2022/12/12 10:36:17;;;;;;;12.35;5.35;;;0.00;87.80;;;;;;4716658;30;20045;-81
2022/12/12 10:42:22;;;;;;;11.70;5.53;;;0.00;89.70;;;;;;4756274;28;20052;-79
2022/12/12 10:45:08;;;;;;;13.90;6.75;;;0.10;88.90;;;;;;4756329;30;20066;-78
2022/12/12 10:47:35;;;;;;;12.57;5.65;;;0.10;89.30;;;;;;4747314;30;20044;-78
2022/12/12 10:50:12;;;;;;;12.55;5.43;;;0.00;88.90;;;;;;4757618;30;20064;-79
2022/12/12 10:52:40;;;;;;;13.05;6.05;;;0.20;90.20;;;;;;4740392;30;20072;-79
2022/12/12 10:55:18;;;;;;;13.23;6.30;;;0.30;89.70;;;;;;4758373;30;20066;-78
2022/12/12 10:58:00;;;;;;;13.35;5.18;;;0.60;90.00;;;;;;4759632;29;20028;-79
2022/12/12 11:00:42;;;;;;;10.07;4.50;;;0.50;89.10;;;;;;4758741;30;20139;-79
2022/12/12 11:03:20;;;;;;;16.00;6.55;;;0.30;89.60;;;;;;4727038;30;20052;-79
2022/12/12 11:05:48;;;;;;;22.02;8.68;;;0.50;90.30;;;;;;4766306;30;20071;-79
2022/12/12 11:08:31;;;;;;;15.38;5.75;;;0.60;90.20;;;;;;4742916;30;20600;-79
2022/12/12 11:11:24;;;;;;;11.90;4.65;;;0.80;88.90;;;;;;4737548;30;20066;-79
2022/12/12 11:14:04;;;;;;;11.20;4.82;;;0.50;87.70;;;;;;4727337;30;20719;-78
2022/12/12 11:16:43;;;;;;;8.02;3.95;;;0.60;84.70;;;;;;4738433;30;20467;-79
2022/12/12 11:19:23;;;;;;;20.13;7.05;;;0.30;83.10;;;;;;4708019;30;20125;-79
2022/12/12 11:21:53;;;;;;;18.13;9.88;;;0.60;84.60;;;;;;4748006;30;20055;-79
2022/12/12 11:24:31;;;;;;;7.93;3.95;;;0.80;85.10;;;;;;4728658;30;20127;-79
2022/12/12 11:27:07;;;;;;;8.20;3.88;;;0.90;84.40;;;;;;4731646;30;20074;-79
2022/12/12 11:29:43;;;;;;;8.98;4.18;;;1.20;84.10;;;;;;4746735;30;20106;-79
2022/12/12 11:32:36;;;;;;;8.23;3.30;;;0.80;83.90;;;;;;4729874;30;20055;-79
2022/12/12 11:35:41;;;;;;;7.05;3.45;;;0.60;83.90;;;;;;4689249;30;20042;-79
2022/12/12 11:38:44;;;;;;;8.88;4.47;;;0.30;83.50;;;;;;4653076;30;20061;-78
2022/12/12 11:41:19;;;;;;;21.65;7.32;;;0.10;86.30;;;;;;4687213;30;20061;-78
2022/12/12 11:43:59;;;;;;;8.80;4.70;;;0.40;86.50;;;;;;4676810;30;20188;-78
2022/12/12 11:46:35;;;;;;;9.43;4.38;;;0.60;85.70;;;;;;4678159;30;20073;-79
2022/12/12 11:49:04;;;;;;;9.93;4.50;;;0.60;86.40;;;;;;4659024;30;20054;-78
2022/12/12 11:51:43;;;;;;;10.70;5.60;;;0.60;85.80;;;;;;4671468;30;20047;-79
2022/12/12 11:54:33;;;;;;;7.65;3.83;;;0.50;87.10;;;;;;4679387;30;20038;-79
2022/12/12 11:57:36;;;;;;;10.77;4.38;;;0.40;87.80;;;;;;4688326;30;20053;-79
2022/12/12 12:00:18;;;;;;;13.38;6.65;;;0.20;88.00;;;;;;4684600;30;20117;-79
2022/12/12 12:03:17;;;;;;;8.25;3.83;;;0.30;89.30;;;;;;4700142;30;20061;-79
2022/12/12 12:06:03;;;;;;;10.27;4.05;;;0.80;90.10;;;;;;4683564;30;20073;-79
2022/12/12 12:09:08;;;;;;;14.85;4.30;;;1.10;90.10;;;;;;4674801;30;20049;-79
2022/12/12 12:12:00;;;;;;;16.92;6.55;;;0.90;88.60;;;;;;4700038;30;20099;-79
2022/12/12 12:15:02;;;;;;;13.02;4.50;;;0.80;89.20;;;;;;4704559;30;20152;-79
2022/12/12 12:17:57;;;;;;;10.48;4.80;;;1.20;90.30;;;;;;4720538;30;20052;-79
2022/12/12 12:20:43;;;;;;;11.05;5.07;;;0.70;89.80;;;;;;4742805;30;20124;-79
2022/12/12 12:23:38;;;;;;;8.82;3.85;;;0.40;90.40;;;;;;4740709;30;20521;-78
2022/12/12 12:26:48;;;;;;;11.75;5.07;;;0.30;91.10;;;;;;4727122;30;20068;-79
2022/12/12 12:30:01;;;;;;;12.80;5.47;;;0.20;91.30;;;;;;4736863;30;20387;-79
2022/12/12 12:33:06;;;;;;;23.17;7.90;;;0.00;91.70;;;;;;4685684;30;20054;-79
2022/12/12 12:35:40;;;;;;;;;;;0.10;92.90;;;;;;4697622;30;20129;-79
2022/12/12 12:38:37;;;;;;;11.55;6.18;;;0.00;93.30;;;;;;4726529;30;19934;-79
2022/12/12 12:41:08;;;;;;;7.07;3.33;;;-0.40;93.70;;;;;;4744819;30;20065;-79
2022/12/12 12:44:11;;;;;;;11.25;4.57;;;-0.10;94.70;;;;;;4739605;30;20059;-79
2022/12/12 12:47:01;;;;;;;15.98;6.68;;;-0.20;95.10;;;;;;4737895;30;20070;-79
2022/12/12 12:50:02;;;;;;;12.93;5.07;;;-0.10;95.30;;;;;;4741641;30;20079;-79
2022/12/12 12:52:38;;;;;;;11.38;4.88;;;0.00;95.00;;;;;;4733948;30;20064;-79
2022/12/12 12:55:14;;;;;;;49.28;19.67;;;-0.20;95.00;;;;;;4723923;30;20067;-79
2022/12/12 12:57:45;;;;;;;26.42;11.02;;;0.10;94.90;;;;;;4719345;30;20064;-79
2022/12/12 13:00:43;;;;;;;21.45;9.13;;;0.00;95.00;;;;;;4710587;30;20053;-79
2022/12/12 13:03:24;;;;;;;15.27;5.80;;;0.00;95.00;;;;;;4712897;30;20072;-79
2022/12/12 13:06:03;;;;;;;14.38;5.22;;;-0.10;95.00;;;;;;4685884;30;20053;-79
2022/12/12 13:08:43;;;;;;;14.75;5.28;;;0.00;95.70;;;;;;4698594;30;20096;-78
2022/12/12 13:11:25;;;;;;;12.32;4.97;;;-0.90;95.90;;;;;;4698140;30;20061;-79
2022/12/12 13:14:06;;;;;;;15.85;5.97;;;-0.10;96.00;;;;;;4713818;30;20057;-79
2022/12/12 13:16:34;;;;;;;16.02;5.65;;;0.00;96.00;;;;;;4714426;30;20049;-79
2022/12/12 13:19:20;;;;;;;13.35;6.03;;;0.00;96.40;;;;;;4716301;30;20088;-78
2022/12/12 13:25:42;;;;;;;13.32;5.90;;;-0.10;95.30;;;;;;4796492;29;20063;-79
2022/12/12 13:32:46;;;;;;;69.82;24.17;;;-0.40;93.80;;;;;;4792350;29;20064;-77
2022/12/12 13:35:31;;;;;;;20.10;10.75;;;-0.10;94.30;;;;;;4872242;24;20049;-80
2022/12/12 13:44:47;;;;;;;13.15;7.43;;;-0.30;94.30;;;;;;5489054;24;20071;-78
2022/12/12 13:48:00;;;;;;;12.43;4.53;;;-0.60;94.40;;;;;;4719863;30;20072;-80
2022/12/12 13:57:32;;;;;;;15.18;7.70;;;-0.30;94.60;;;;;;5308012;24;20202;-79
2022/12/12 14:14:34;;;;;;;35.67;16.65;;;-0.30;94.20;;;;;;5326728;24;20035;31
2022/12/12 14:17:17;;;;;;;11.20;5.00;;;-0.40;94.00;;;;;;4748779;30;20064;-79
2022/12/12 14:19:51;;;;;;;15.73;6.30;;;-0.50;93.40;;;;;;4740776;30;20051;-79
2022/12/12 14:22:48;;;;;;;12.38;4.65;;;-0.50;93.50;;;;;;4745349;30;20040;-79
2022/12/12 14:25:33;;;;;;;18.10;7.07;;;-0.70;93.60;;;;;;4732560;30;20060;-79
2022/12/12 14:28:27;;;;;;;21.13;4.47;;;-0.70;93.60;;;;;;4729811;30;20040;-79
2022/12/12 14:31:15;;;;;;;22.05;7.13;;;-0.60;93.00;;;;;;4732501;30;20041;-79
2022/12/12 14:34:15;;;;;;;23.95;8.60;;;-0.50;93.00;;;;;;4681596;30;20060;-79
2022/12/12 14:37:10;;;;;;;16.23;6.38;;;-0.60;93.70;;;;;;4722673;30;20061;-79
2022/12/12 14:39:52;;;;;;;18.40;6.20;;;-0.50;94.20;;;;;;4713917;30;20049;-79
2022/12/12 14:42:26;;;;;;;11.65;5.50;;;-0.70;93.90;;;;;;4710231;30;20053;-79
2022/12/12 14:45:24;;;;;;;12.88;5.40;;;0.30;94.60;;;;;;4737040;30;20490;-79
2022/12/12 14:48:18;;;;;;;24.67;8.68;;;-0.70;94.80;;;;;;4708656;30;20525;-78
2022/12/12 14:51:20;;;;;;;19.70;8.63;;;-1.00;95.00;;;;;;4725535;30;20045;-78
2022/12/12 14:53:58;;;;;;;27.67;10.43;;;-0.70;95.00;;;;;;4725054;30;20058;-78
2022/12/12 14:56:49;;;;;;;22.55;8.98;;;-0.80;95.20;;;;;;4726153;30;20048;-79
2022/12/12 14:59:25;;;;;;;23.60;9.88;;;-0.90;95.30;;;;;;4658726;30;20144;-79
2022/12/12 15:01:56;;;;;;;24.10;7.70;;;-1.00;95.60;;;;;;4675335;30;20062;-79
2022/12/12 15:04:31;;;;;;;18.92;5.82;;;-0.80;95.70;;;;;;4690037;30;20295;-79
2022/12/12 15:07:02;;;;;;;13.98;4.75;;;-0.90;96.00;;;;;;4697762;30;20180;-78
2022/12/12 15:09:40;;;;;;;15.20;5.40;;;-1.00;96.10;;;;;;4669673;30;20053;-78
2022/12/12 15:12:14;;;;;;;13.48;6.78;;;-1.20;96.40;;;;;;4683492;30;20064;-79
2022/12/12 15:14:48;;;;;;;13.07;4.85;;;-1.00;96.50;;;;;;4680649;30;20111;-79
2022/12/12 15:17:19;;;;;;;14.75;6.20;;;-1.60;96.60;;;;;;4665786;30;20057;-79